sensor_id;sensor_type;location;lat;lon;timestamp;pressure;altitude;pressure_sealevel;temperature;humidity
64792;BME280;51226;47.504;19.074;2024-03-22T00:01:30;100503.28;;;15.19;40.16
64792;BME280;51226;47.504;19.074;2024-03-22T00:04:32;100504.22;;;15.22;40.20
64792;BME280;51226;47.504;19.074;2024-03-22T00:07:34;100501.59;;;15.22;40.13
64792;BME280;51226;47.504;19.074;2024-03-22T00:10:36;100502.50;;;15.22;40.13
64792;BME280;51226;47.504;19.074;2024-03-22T00:13:38;100503.34;;;15.21;40.29
64792;BME280;51226;47.504;19.074;2024-03-22T00:16:40;100499.00;;;15.23;40.41
64792;BME280;51226;47.504;19.074;2024-03-22T00:19:42;100496.53;;;15.31;40.29
64792;BME280;51226;47.504;19.074;2024-03-22T00:22:44;100499.91;;;15.24;40.34
64792;BME280;51226;47.504;19.074;2024-03-22T00:25:46;100496.44;;;15.26;40.36
64792;BME280;51226;47.504;19.074;2024-03-22T00:28:50;100485.97;;;15.29;40.43
64792;BME280;51226;47.504;19.074;2024-03-22T00:31:52;100483.28;;;15.26;40.54
64792;BME280;51226;47.504;19.074;2024-03-22T00:34:54;100486.81;;;15.28;40.65
64792;BME280;51226;47.504;19.074;2024-03-22T00:37:56;100485.06;;;15.27;40.61
64792;BME280;51226;47.504;19.074;2024-03-22T00:40:58;100485.88;;;15.25;40.67
64792;BME280;51226;47.504;19.074;2024-03-22T00:44:00;100478.91;;;15.25;40.73
64792;BME280;51226;47.504;19.074;2024-03-22T00:47:02;100479.69;;;15.21;40.77
64792;BME280;51226;47.504;19.074;2024-03-22T00:50:05;100472.72;;;15.23;40.82
64792;BME280;51226;47.504;19.074;2024-03-22T00:53:07;100469.25;;;15.24;40.73
64792;BME280;51226;47.504;19.074;2024-03-22T00:56:09;100466.53;;;15.21;40.80
64792;BME280;51226;47.504;19.074;2024-03-22T00:59:11;100463.91;;;15.21;40.85
64792;BME280;51226;47.504;19.074;2024-03-22T01:02:13;100467.53;;;15.26;40.92
64792;BME280;51226;47.504;19.074;2024-03-22T01:05:14;100458.72;;;15.24;41.03
64792;BME280;51226;47.504;19.074;2024-03-22T01:08:16;100465.72;;;15.22;41.14
64792;BME280;51226;47.504;19.074;2024-03-22T01:11:18;100468.34;;;15.22;41.07
64792;BME280;51226;47.504;19.074;2024-03-22T01:14:20;100466.63;;;15.24;41.08
64792;BME280;51226;47.504;19.074;2024-03-22T01:17:22;100470.13;;;15.25;41.20
64792;BME280;51226;47.504;19.074;2024-03-22T01:20:24;100468.41;;;15.25;41.28
64792;BME280;51226;47.504;19.074;2024-03-22T01:23:28;100471.03;;;15.25;41.39
64792;BME280;51226;47.504;19.074;2024-03-22T01:26:29;100472.81;;;15.28;41.52
64792;BME280;51226;47.504;19.074;2024-03-22T01:29:33;100476.31;;;15.28;41.63
64792;BME280;51226;47.504;19.074;2024-03-22T01:32:35;100478.03;;;15.26;41.68
64792;BME280;51226;47.504;19.074;2024-03-22T01:35:37;100471.06;;;15.28;41.74
64792;BME280;51226;47.504;19.074;2024-03-22T01:38:42;100468.41;;;15.27;41.78
64792;BME280;51226;47.504;19.074;2024-03-22T01:41:44;100471.97;;;15.29;41.86
64792;BME280;51226;47.504;19.074;2024-03-22T01:44:45;100464.13;;;15.30;41.88
64792;BME280;51226;47.504;19.074;2024-03-22T01:47:47;100463.28;;;15.33;41.97
64792;BME280;51226;47.504;19.074;2024-03-22T01:50:50;100459.78;;;15.32;42.08
64792;BME280;51226;47.504;19.074;2024-03-22T01:53:52;100462.38;;;15.31;42.13
64792;BME280;51226;47.504;19.074;2024-03-22T01:56:55;100458.91;;;15.32;42.20
64792;BME280;51226;47.504;19.074;2024-03-22T01:59:56;100452.75;;;15.33;42.23
64792;BME280;51226;47.504;19.074;2024-03-22T02:03:00;100451.88;;;15.32;42.28
64792;BME280;51226;47.504;19.074;2024-03-22T02:06:03;100454.53;;;15.32;42.38
64792;BME280;51226;47.504;19.074;2024-03-22T02:09:06;100460.63;;;15.31;42.44
64792;BME280;51226;47.504;19.074;2024-03-22T02:12:10;100465.84;;;15.30;42.49
64792;BME280;51226;47.504;19.074;2024-03-22T02:15:12;100458.88;;;15.30;42.51
64792;BME280;51226;47.504;19.074;2024-03-22T02:18:17;100452.75;;;15.33;42.59
64792;BME280;51226;47.504;19.074;2024-03-22T02:21:19;100457.06;;;15.29;42.63
64792;BME280;51226;47.504;19.074;2024-03-22T02:24:20;100462.53;;;15.38;42.39
64792;BME280;51226;47.504;19.074;2024-03-22T02:27:22;100461.25;;;15.19;42.59
64792;BME280;51226;47.504;19.074;2024-03-22T02:30:38;100460.25;;;15.13;42.73
64792;BME280;51226;47.504;19.074;2024-03-22T02:33:40;100465.41;;;15.08;42.75
64792;BME280;51226;47.504;19.074;2024-03-22T02:36:42;100454.84;;;15.07;42.80
64792;BME280;51226;47.504;19.074;2024-03-22T02:39:43;100461.13;;;15.13;42.70
64792;BME280;51226;47.504;19.074;2024-03-22T02:42:45;100458.56;;;15.16;42.68
64792;BME280;51226;47.504;19.074;2024-03-22T02:45:47;100450.78;;;15.21;42.66
64792;BME280;51226;47.504;19.074;2024-03-22T02:48:50;100455.00;;;15.13;42.80
64792;BME280;51226;47.504;19.074;2024-03-22T02:51:52;100458.44;;;15.09;42.97
64792;BME280;51226;47.504;19.074;2024-03-22T02:54:54;100449.84;;;15.17;42.93
64792;BME280;51226;47.504;19.074;2024-03-22T02:57:56;100444.56;;;15.16;43.00
64792;BME280;51226;47.504;19.074;2024-03-22T03:00:58;100448.94;;;15.15;43.09
64792;BME280;51226;47.504;19.074;2024-03-22T03:04:00;100446.44;;;15.23;43.11
64792;BME280;51226;47.504;19.074;2024-03-22T03:07:02;100440.28;;;15.21;43.13
64792;BME280;51226;47.504;19.074;2024-03-22T03:10:04;100434.94;;;15.18;43.23
64792;BME280;51226;47.504;19.074;2024-03-22T03:13:06;100438.44;;;15.17;43.45
64792;BME280;51226;47.504;19.074;2024-03-22T03:16:07;100442.00;;;15.19;43.58
64792;BME280;51226;47.504;19.074;2024-03-22T03:19:09;100439.41;;;15.21;43.58
64792;BME280;51226;47.504;19.074;2024-03-22T03:22:11;100437.63;;;15.19;43.64
64792;BME280;51226;47.504;19.074;2024-03-22T03:25:13;100430.56;;;15.17;43.76
64792;BME280;51226;47.504;19.074;2024-03-22T03:28:15;100431.19;;;15.04;43.95
64792;BME280;51226;47.504;19.074;2024-03-22T03:31:17;100432.97;;;15.06;43.92
64792;BME280;51226;47.504;19.074;2024-03-22T03:34:19;100438.31;;;15.11;43.87
64792;BME280;51226;47.504;19.074;2024-03-22T03:37:22;100440.16;;;15.16;43.90
64792;BME280;51226;47.504;19.074;2024-03-22T03:40:23;100440.09;;;15.13;43.96
64792;BME280;51226;47.504;19.074;2024-03-22T03:43:26;100448.91;;;15.14;44.04
64792;BME280;51226;47.504;19.074;2024-03-22T03:46:27;100441.97;;;15.17;44.10
64792;BME280;51226;47.504;19.074;2024-03-22T03:49:29;100434.84;;;15.12;44.17
64792;BME280;51226;47.504;19.074;2024-03-22T03:52:31;100445.28;;;15.09;44.28
64792;BME280;51226;47.504;19.074;2024-03-22T03:55:33;100446.06;;;15.05;44.35
64792;BME280;51226;47.504;19.074;2024-03-22T03:58:35;100446.06;;;15.05;44.37
64792;BME280;51226;47.504;19.074;2024-03-22T04:01:36;100446.13;;;15.08;44.45
64792;BME280;51226;47.504;19.074;2024-03-22T04:04:39;100448.78;;;15.09;44.57
64792;BME280;51226;47.504;19.074;2024-03-22T04:07:40;100450.53;;;15.09;44.70
64792;BME280;51226;47.504;19.074;2024-03-22T04:10:50;100451.53;;;15.14;44.77
64792;BME280;51226;47.504;19.074;2024-03-22T04:13:53;100446.22;;;15.12;44.84
64792;BME280;51226;47.504;19.074;2024-03-22T04:16:55;100455.00;;;15.13;44.93
64792;BME280;51226;47.504;19.074;2024-03-22T04:19:57;100448.00;;;15.12;45.04
64792;BME280;51226;47.504;19.074;2024-03-22T04:22:59;100463.03;;;15.21;45.01
64792;BME280;51226;47.504;19.074;2024-03-22T04:26:01;100460.25;;;15.13;45.19
64792;BME280;51226;47.504;19.074;2024-03-22T04:29:03;100462.78;;;15.08;45.50
64792;BME280;51226;47.504;19.074;2024-03-22T04:32:04;100471.50;;;15.06;45.76
64792;BME280;51226;47.504;19.074;2024-03-22T04:35:07;100465.38;;;15.05;45.88
64792;BME280;51226;47.504;19.074;2024-03-22T04:38:08;100472.34;;;15.05;46.21
64792;BME280;51226;47.504;19.074;2024-03-22T04:41:10;100473.12;;;15.00;46.44
64792;BME280;51226;47.504;19.074;2024-03-22T04:44:12;100467.84;;;14.99;46.71
64792;BME280;51226;47.504;19.074;2024-03-22T04:47:14;100471.31;;;14.98;46.83
64792;BME280;51226;47.504;19.074;2024-03-22T04:50:16;100477.50;;;15.01;47.02
64792;BME280;51226;47.504;19.074;2024-03-22T04:53:18;100476.56;;;14.98;47.33
64792;BME280;51226;47.504;19.074;2024-03-22T04:56:20;100472.22;;;15.00;47.63
64792;BME280;51226;47.504;19.074;2024-03-22T04:59:22;100476.59;;;14.99;47.93
64792;BME280;51226;47.504;19.074;2024-03-22T05:02:23;100474.81;;;14.97;48.20
64792;BME280;51226;47.504;19.074;2024-03-22T05:05:25;100472.16;;;14.95;48.35
64792;BME280;51226;47.504;19.074;2024-03-22T05:08:27;100475.75;;;15.00;48.47
64792;BME280;51226;47.504;19.074;2024-03-22T05:11:29;100482.13;;;15.12;48.67
64792;BME280;51226;47.504;19.074;2024-03-22T05:14:31;100470.87;;;15.19;48.60
64792;BME280;51226;47.504;19.074;2024-03-22T05:17:33;100471.75;;;15.19;48.50
64792;BME280;51226;47.504;19.074;2024-03-22T05:20:35;100477.91;;;15.20;48.56
64792;BME280;51226;47.504;19.074;2024-03-22T05:23:37;100479.66;;;15.19;48.70
64792;BME280;51226;47.504;19.074;2024-03-22T05:26:38;100477.87;;;15.17;48.78
64792;BME280;51226;47.504;19.074;2024-03-22T05:29:41;100477.87;;;15.17;48.94
64792;BME280;51226;47.504;19.074;2024-03-22T05:32:42;100478.91;;;15.27;49.04
64792;BME280;51226;47.504;19.074;2024-03-22T05:35:47;100480.91;;;15.37;48.81
64792;BME280;51226;47.504;19.074;2024-03-22T05:38:48;100478.09;;;15.29;49.00
64792;BME280;51226;47.504;19.074;2024-03-22T05:41:50;100481.84;;;15.41;48.94
64792;BME280;51226;47.504;19.074;2024-03-22T05:44:52;100471.31;;;15.41;48.97
64792;BME280;51226;47.504;19.074;2024-03-22T05:47:54;100462.47;;;15.35;49.05
64792;BME280;51226;47.504;19.074;2024-03-22T05:50:56;100471.44;;;15.47;48.87
64792;BME280;51226;47.504;19.074;2024-03-22T05:53:58;100472.22;;;15.43;48.96
64792;BME280;51226;47.504;19.074;2024-03-22T05:56:59;100471.44;;;15.47;48.94
64792;BME280;51226;47.504;19.074;2024-03-22T06:00:02;100474.16;;;15.51;48.86
64792;BME280;51226;47.504;19.074;2024-03-22T06:03:06;100471.81;;;15.65;48.60
64792;BME280;51226;47.504;19.074;2024-03-22T06:06:08;100474.69;;;15.78;48.31
64792;BME280;51226;47.504;19.074;2024-03-22T06:09:10;100474.97;;;15.95;47.89
64792;BME280;51226;47.504;19.074;2024-03-22T06:12:13;100466.50;;;16.11;47.34
64792;BME280;51226;47.504;19.074;2024-03-22T06:15:14;100468.88;;;15.96;47.75
64792;BME280;51226;47.504;19.074;2024-03-22T06:18:17;100467.13;;;15.96;47.80
64792;BME280;51226;47.504;19.074;2024-03-22T06:21:18;100474.19;;;16.00;47.74
64792;BME280;51226;47.504;19.074;2024-03-22T06:24:23;100464.84;;;16.18;47.25
64792;BME280;51226;47.504;19.074;2024-03-22T06:27:26;100474.50;;;16.17;47.34
64792;BME280;51226;47.504;19.074;2024-03-22T06:30:29;100469.44;;;16.31;46.91
64792;BME280;51226;47.504;19.074;2024-03-22T06:33:30;100472.00;;;16.26;47.07
64792;BME280;51226;47.504;19.074;2024-03-22T06:36:33;100470.53;;;16.44;46.74
64792;BME280;51226;47.504;19.074;2024-03-22T06:39:35;100465.25;;;16.42;46.78
64792;BME280;51226;47.504;19.074;2024-03-22T06:42:37;100463.63;;;16.54;46.51
64792;BME280;51226;47.504;19.074;2024-03-22T06:45:38;100463.28;;;16.89;45.70
64792;BME280;51226;47.504;19.074;2024-03-22T06:48:40;100466.19;;;17.09;45.18
64792;BME280;51226;47.504;19.074;2024-03-22T06:51:42;100477.59;;;17.06;45.06
64792;BME280;51226;47.504;19.074;2024-03-22T06:54:44;100472.41;;;17.15;44.97
64792;BME280;51226;47.504;19.074;2024-03-22T06:57:46;100478.34;;;16.97;45.38
64792;BME280;51226;47.504;19.074;2024-03-22T07:00:49;100468.19;;;17.28;44.65
64792;BME280;51226;47.504;19.074;2024-03-22T07:03:50;100475.22;;;17.28;44.94
64792;BME280;51226;47.504;19.074;2024-03-22T07:06:54;100477.41;;;17.67;43.55
64792;BME280;51226;47.504;19.074;2024-03-22T07:09:56;100480.75;;;17.51;44.00
64792;BME280;51226;47.504;19.074;2024-03-22T07:12:58;100487.47;;;17.24;44.60
64792;BME280;51226;47.504;19.074;2024-03-22T07:16:00;100489.34;;;17.33;44.65
64792;BME280;51226;47.504;19.074;2024-03-22T07:19:02;100490.03;;;17.18;45.09
64792;BME280;51226;47.504;19.074;2024-03-22T07:22:03;100493.72;;;17.31;45.13
64792;BME280;51226;47.504;19.074;2024-03-22T07:25:06;100490.22;;;17.33;45.15
64792;BME280;51226;47.504;19.074;2024-03-22T07:28:07;100490.78;;;17.84;44.21
64792;BME280;51226;47.504;19.074;2024-03-22T07:31:09;100484.78;;;18.01;43.44
64792;BME280;51226;47.504;19.074;2024-03-22T07:34:11;100480.00;;;17.63;44.16
64792;BME280;51226;47.504;19.074;2024-03-22T07:37:13;100495.34;;;17.99;43.47
64792;BME280;51226;47.504;19.074;2024-03-22T07:40:14;100493.38;;;17.81;43.71
64792;BME280;51226;47.504;19.074;2024-03-22T07:43:17;100485.44;;;17.78;43.68
64792;BME280;51226;47.504;19.074;2024-03-22T07:46:37;100498.59;;;17.75;43.74
64792;BME280;51226;47.504;19.074;2024-03-22T07:49:39;100496.78;;;17.69;43.85
64792;BME280;51226;47.504;19.074;2024-03-22T07:52:41;100504.94;;;17.92;43.57
64792;BME280;51226;47.504;19.074;2024-03-22T07:55:42;100510.94;;;17.77;43.88
64792;BME280;51226;47.504;19.074;2024-03-22T07:58:44;100510.31;;;18.02;43.23
64792;BME280;51226;47.504;19.074;2024-03-22T08:01:46;100519.09;;;17.98;43.49
64792;BME280;51226;47.504;19.074;2024-03-22T08:04:48;100516.56;;;18.10;43.35
64792;BME280;51226;47.504;19.074;2024-03-22T08:07:50;100513.31;;;18.40;42.60
64792;BME280;51226;47.504;19.074;2024-03-22T08:10:52;100511.41;;;18.25;42.49
64792;BME280;51226;47.504;19.074;2024-03-22T08:13:54;100523.69;;;18.20;42.36
64792;BME280;51226;47.504;19.074;2024-03-22T08:17:03;100515.81;;;18.25;41.95
64792;BME280;51226;47.504;19.074;2024-03-22T08:20:05;100520.88;;;18.02;42.60
64792;BME280;51226;47.504;19.074;2024-03-22T08:23:07;100522.69;;;18.09;42.45
64792;BME280;51226;47.504;19.074;2024-03-22T08:26:08;100520.22;;;18.27;41.90
64792;BME280;51226;47.504;19.074;2024-03-22T08:29:10;100521.06;;;18.20;42.21
64792;BME280;51226;47.504;19.074;2024-03-22T08:32:12;100520.97;;;18.14;42.32
64792;BME280;51226;47.504;19.074;2024-03-22T08:35:14;100516.69;;;18.25;42.08
64792;BME280;51226;47.504;19.074;2024-03-22T08:38:16;100524.75;;;18.38;42.08
64792;BME280;51226;47.504;19.074;2024-03-22T08:41:18;100523.78;;;18.32;42.27
64792;BME280;51226;47.504;19.074;2024-03-22T08:44:20;100511.50;;;18.33;42.45
64792;BME280;51226;47.504;19.074;2024-03-22T08:47:22;100523.16;;;18.63;42.02
64792;BME280;51226;47.504;19.074;2024-03-22T08:50:25;100523.47;;;19.03;41.35
64792;BME280;51226;47.504;19.074;2024-03-22T08:53:27;100520.28;;;19.92;39.84
64792;BME280;51226;47.504;19.074;2024-03-22T08:56:29;100513.19;;;21.03;38.32
64792;BME280;51226;47.504;19.074;2024-03-22T08:59:31;100502.66;;;22.47;35.68
64792;BME280;51226;47.504;19.074;2024-03-22T09:02:33;100500.84;;;23.35;33.42
64792;BME280;51226;47.504;19.074;2024-03-22T09:05:36;100500.81;;;23.39;33.30
64792;BME280;51226;47.504;19.074;2024-03-22T09:08:37;100499.56;;;23.63;32.81
64792;BME280;51226;47.504;19.074;2024-03-22T09:11:39;100495.34;;;23.48;33.28
64792;BME280;51226;47.504;19.074;2024-03-22T09:14:41;100494.94;;;23.78;32.60
64792;BME280;51226;47.504;19.074;2024-03-22T09:17:43;100494.06;;;23.77;32.44
64792;BME280;51226;47.504;19.074;2024-03-22T09:20:45;100482.78;;;23.58;32.95
64792;BME280;51226;47.504;19.074;2024-03-22T09:23:47;100484.06;;;23.93;32.14
64792;BME280;51226;47.504;19.074;2024-03-22T09:26:49;100476.97;;;23.92;31.90
64792;BME280;51226;47.504;19.074;2024-03-22T09:29:50;100480.50;;;23.96;32.16
64792;BME280;51226;47.504;19.074;2024-03-22T09:32:52;100464.66;;;24.41;31.17
64792;BME280;51226;47.504;19.074;2024-03-22T09:35:54;100469.44;;;24.19;31.45
64792;BME280;51226;47.504;19.074;2024-03-22T09:38:55;100460.22;;;24.38;31.06
64792;BME280;51226;47.504;19.074;2024-03-22T09:41:57;100457.22;;;24.58;30.84
64792;BME280;51226;47.504;19.074;2024-03-22T09:45:00;100457.84;;;24.74;30.74
64792;BME280;51226;47.504;19.074;2024-03-22T09:48:02;100458.03;;;25.09;30.26
64792;BME280;51226;47.504;19.074;2024-03-22T09:51:04;100457.59;;;25.30;29.67
64792;BME280;51226;47.504;19.074;2024-03-22T09:54:06;100453.44;;;25.15;30.19
64792;BME280;51226;47.504;19.074;2024-03-22T09:57:09;100458.19;;;25.45;29.50
64792;BME280;51226;47.504;19.074;2024-03-22T10:00:12;100457.31;;;25.44;29.55
64792;BME280;51226;47.504;19.074;2024-03-22T10:03:15;100451.13;;;25.41;29.66
64792;BME280;51226;47.504;19.074;2024-03-22T10:06:17;100445.97;;;25.35;29.91
64792;BME280;51226;47.504;19.074;2024-03-22T10:09:19;100442.62;;;25.22;30.05
64792;BME280;51226;47.504;19.074;2024-03-22T10:12:20;100438.28;;;25.18;29.91
64792;BME280;51226;47.504;19.074;2024-03-22T10:15:23;100439.78;;;24.87;30.21
64792;BME280;51226;47.504;19.074;2024-03-22T10:18:26;100433.47;;;24.93;30.18
64792;BME280;51226;47.504;19.074;2024-03-22T10:21:28;100438.53;;;24.60;30.77
64792;BME280;51226;47.504;19.074;2024-03-22T10:24:30;100430.81;;;24.43;31.05
64792;BME280;51226;47.504;19.074;2024-03-22T10:27:33;100433.75;;;24.29;31.20
64792;BME280;51226;47.504;19.074;2024-03-22T10:30:35;100435.03;;;24.05;31.77
64792;BME280;51226;47.504;19.074;2024-03-22T10:33:38;100430.44;;;24.15;31.78
64792;BME280;51226;47.504;19.074;2024-03-22T10:36:41;100427.66;;;24.22;31.77
64792;BME280;51226;47.504;19.074;2024-03-22T10:39:44;100425.78;;;24.28;31.58
64792;BME280;51226;47.504;19.074;2024-03-22T10:42:47;100433.22;;;24.07;31.93
64792;BME280;51226;47.504;19.074;2024-03-22T10:45:50;100423.13;;;24.28;31.44
64792;BME280;51226;47.504;19.074;2024-03-22T10:48:52;100427.97;;;24.04;31.88
64792;BME280;51226;47.504;19.074;2024-03-22T10:51:59;100422.78;;;24.46;30.99
64792;BME280;51226;47.504;19.074;2024-03-22T10:55:04;100426.00;;;24.65;30.68
64792;BME280;51226;47.504;19.074;2024-03-22T10:58:07;100429.31;;;24.78;30.25
64792;BME280;51226;47.504;19.074;2024-03-22T11:01:22;100426.38;;;24.42;30.31
64792;BME280;51226;47.504;19.074;2024-03-22T11:04:29;100425.09;;;24.15;30.41
64792;BME280;51226;47.504;19.074;2024-03-22T11:07:31;100429.72;;;24.05;30.39
64792;BME280;51226;47.504;19.074;2024-03-22T11:10:33;100418.94;;;24.13;30.60
64792;BME280;51226;47.504;19.074;2024-03-22T11:13:36;100420.56;;;24.21;30.54
64792;BME280;51226;47.504;19.074;2024-03-22T11:16:38;100416.97;;;24.24;30.59
64792;BME280;51226;47.504;19.074;2024-03-22T11:19:39;100410.78;;;24.20;30.26
64792;BME280;51226;47.504;19.074;2024-03-22T11:22:41;100420.16;;;23.92;30.62
64792;BME280;51226;47.504;19.074;2024-03-22T11:25:43;100412.34;;;23.82;30.72
64792;BME280;51226;47.504;19.074;2024-03-22T11:28:45;100409.16;;;24.12;29.89
64792;BME280;51226;47.504;19.074;2024-03-22T11:31:46;100401.88;;;24.21;29.58
64792;BME280;51226;47.504;19.074;2024-03-22T11:34:48;100402.00;;;24.64;28.85
64792;BME280;51226;47.504;19.074;2024-03-22T11:37:50;100399.31;;;25.09;28.51
64792;BME280;51226;47.504;19.074;2024-03-22T11:40:52;100398.06;;;25.25;28.48
64792;BME280;51226;47.504;19.074;2024-03-22T11:43:54;100390.97;;;26.01;27.56
64792;BME280;51226;47.504;19.074;2024-03-22T11:46:56;100394.53;;;26.34;26.99
64792;BME280;51226;47.504;19.074;2024-03-22T11:49:58;100394.94;;;26.85;26.39
64792;BME280;51226;47.504;19.074;2024-03-22T11:53:00;100383.03;;;27.25;25.94
64792;BME280;51226;47.504;19.074;2024-03-22T11:56:02;100381.25;;;27.82;25.01
64792;BME280;51226;47.504;19.074;2024-03-22T11:59:07;100379.41;;;27.56;24.88
64792;BME280;51226;47.504;19.074;2024-03-22T12:02:09;100381.88;;;27.35;24.77
64792;BME280;51226;47.504;19.074;2024-03-22T12:05:11;100370.97;;;27.40;24.17
64792;BME280;51226;47.504;19.074;2024-03-22T12:08:13;100366.09;;;27.24;24.46
64792;BME280;51226;47.504;19.074;2024-03-22T12:11:16;100363.50;;;26.91;25.20
64792;BME280;51226;47.504;19.074;2024-03-22T12:14:17;100362.94;;;26.82;25.09
64792;BME280;51226;47.504;19.074;2024-03-22T12:17:19;100360.88;;;26.27;25.63
64792;BME280;51226;47.504;19.074;2024-03-22T12:20:21;100349.34;;;25.89;26.09
64792;BME280;51226;47.504;19.074;2024-03-22T12:23:23;100343.66;;;25.68;26.46
64792;BME280;51226;47.504;19.074;2024-03-22T12:26:26;100344.22;;;25.45;26.77
64792;BME280;51226;47.504;19.074;2024-03-22T12:29:28;100344.41;;;25.38;26.53
64792;BME280;51226;47.504;19.074;2024-03-22T12:32:29;100347.84;;;25.02;27.20
64792;BME280;51226;47.504;19.074;2024-03-22T12:35:31;100345.16;;;24.62;27.90
64792;BME280;51226;47.504;19.074;2024-03-22T12:38:34;100345.94;;;24.67;28.39
64792;BME280;51226;47.504;19.074;2024-03-22T12:41:35;100345.19;;;24.60;28.57
64792;BME280;51226;47.504;19.074;2024-03-22T12:44:37;100337.25;;;24.57;28.73
64792;BME280;51226;47.504;19.074;2024-03-22T12:47:39;100340.81;;;24.57;28.78
64792;BME280;51226;47.504;19.074;2024-03-22T12:50:41;100335.97;;;24.76;28.44
64792;BME280;51226;47.504;19.074;2024-03-22T12:53:42;100328.09;;;24.70;28.67
64792;BME280;51226;47.504;19.074;2024-03-22T12:56:45;100325.81;;;24.50;29.09
64792;BME280;51226;47.504;19.074;2024-03-22T12:59:46;100325.63;;;24.14;29.33
64792;BME280;51226;47.504;19.074;2024-03-22T13:02:48;100310.97;;;23.89;29.40
64792;BME280;51226;47.504;19.074;2024-03-22T13:05:50;100305.88;;;23.75;29.55
64792;BME280;51226;47.504;19.074;2024-03-22T13:08:52;100297.56;;;23.40;30.00
64792;BME280;51226;47.504;19.074;2024-03-22T13:11:53;100293.16;;;23.39;29.80
64792;BME280;51226;47.504;19.074;2024-03-22T13:14:55;100299.69;;;23.20;30.24
64792;BME280;51226;47.504;19.074;2024-03-22T13:17:57;100291.75;;;23.17;30.37
64792;BME280;51226;47.504;19.074;2024-03-22T13:20:59;100284.06;;;23.53;29.85
64792;BME280;51226;47.504;19.074;2024-03-22T13:24:01;100286.44;;;23.70;29.42
64792;BME280;51226;47.504;19.074;2024-03-22T13:27:03;100276.94;;;23.55;29.73
64792;BME280;51226;47.504;19.074;2024-03-22T13:30:05;100277.28;;;23.88;28.79
64792;BME280;51226;47.504;19.074;2024-03-22T13:33:11;100265.56;;;23.96;28.64
64792;BME280;51226;47.504;19.074;2024-03-22T13:36:13;100262.53;;;24.15;28.79
64792;BME280;51226;47.504;19.074;2024-03-22T13:39:14;100267.87;;;24.15;28.90
64792;BME280;51226;47.504;19.074;2024-03-22T13:42:17;100253.44;;;24.25;28.27
64792;BME280;51226;47.504;19.074;2024-03-22T13:45:19;100252.62;;;24.21;28.18
64792;BME280;51226;47.504;19.074;2024-03-22T13:48:22;100258.03;;;23.68;29.01
64792;BME280;51226;47.504;19.074;2024-03-22T13:51:26;100253.78;;;23.60;29.30
64792;BME280;51226;47.504;19.074;2024-03-22T13:54:29;100247.37;;;23.68;29.10
64792;BME280;51226;47.504;19.074;2024-03-22T13:57:31;100240.59;;;23.52;29.40
64792;BME280;51226;47.504;19.074;2024-03-22T14:00:33;100234.94;;;23.21;29.88
64792;BME280;51226;47.504;19.074;2024-03-22T14:03:35;100235.25;;;23.52;29.28
64792;BME280;51226;47.504;19.074;2024-03-22T14:06:37;100245.53;;;23.72;29.01
64792;BME280;51226;47.504;19.074;2024-03-22T14:09:39;100234.63;;;23.89;28.82
64792;BME280;51226;47.504;19.074;2024-03-22T14:12:42;100228.31;;;24.37;28.00
64792;BME280;51226;47.504;19.074;2024-03-22T14:15:44;100235.94;;;24.54;27.30
64792;BME280;51226;47.504;19.074;2024-03-22T14:18:45;100227.75;;;24.22;27.84
64792;BME280;51226;47.504;19.074;2024-03-22T14:21:48;100220.47;;;24.31;27.44
64792;BME280;51226;47.504;19.074;2024-03-22T14:24:49;100218.03;;;24.18;27.55
64792;BME280;51226;47.504;19.074;2024-03-22T14:27:51;100212.16;;;24.02;28.04
64792;BME280;51226;47.504;19.074;2024-03-22T14:30:53;100211.16;;;24.08;27.66
64792;BME280;51226;47.504;19.074;2024-03-22T14:33:55;100218.72;;;23.84;27.59
64792;BME280;51226;47.504;19.074;2024-03-22T14:36:56;100210.28;;;23.61;28.07
64792;BME280;51226;47.504;19.074;2024-03-22T14:39:58;100208.69;;;23.51;28.07
64792;BME280;51226;47.504;19.074;2024-03-22T14:42:59;100197.22;;;23.45;28.08
64792;BME280;51226;47.504;19.074;2024-03-22T14:46:01;100196.31;;;23.46;28.17
64792;BME280;51226;47.504;19.074;2024-03-22T14:49:06;100183.59;;;23.14;28.56
64792;BME280;51226;47.504;19.074;2024-03-22T14:52:10;100181.38;;;22.83;28.50
64792;BME280;51226;47.504;19.074;2024-03-22T14:55:11;100191.53;;;22.56;29.02
64792;BME280;51226;47.504;19.074;2024-03-22T14:58:13;100180.47;;;22.22;29.60
64792;BME280;51226;47.504;19.074;2024-03-22T15:01:15;100181.53;;;22.09;29.80
64792;BME280;51226;47.504;19.074;2024-03-22T15:04:17;100171.72;;;22.15;29.67
64792;BME280;51226;47.504;19.074;2024-03-22T15:07:18;100193.22;;;21.95;29.95
64792;BME280;51226;47.504;19.074;2024-03-22T15:10:21;100182.87;;;21.68;30.55
64792;BME280;51226;47.504;19.074;2024-03-22T15:13:24;100186.53;;;21.59;30.46
64792;BME280;51226;47.504;19.074;2024-03-22T15:16:29;100189.25;;;21.51;30.33
64792;BME280;51226;47.504;19.074;2024-03-22T15:19:31;100185.78;;;21.41;30.22
64792;BME280;51226;47.504;19.074;2024-03-22T15:22:33;100182.28;;;21.38;29.50
64792;BME280;51226;47.504;19.074;2024-03-22T15:25:34;100183.31;;;21.20;29.59
64792;BME280;51226;47.504;19.074;2024-03-22T15:28:36;100171.28;;;20.82;30.25
64792;BME280;51226;47.504;19.074;2024-03-22T15:31:38;100173.16;;;20.63;30.58
64792;BME280;51226;47.504;19.074;2024-03-22T15:34:40;100181.16;;;20.53;30.33
64792;BME280;51226;47.504;19.074;2024-03-22T15:37:41;100181.28;;;20.29;30.79
64792;BME280;51226;47.504;19.074;2024-03-22T15:40:46;100175.16;;;20.16;31.06